sensor_id;sensor_type;location;lat;lon;timestamp;temperature;humidity
43047;DHT22;28672;49.358;8.780;2022-11-20T00:00:53;3.70;99.90
43047;DHT22;28672;49.358;8.780;2022-11-20T00:03:19;3.70;99.90
43047;DHT22;28672;49.358;8.780;2022-11-20T00:05:45;3.70;99.90
43047;DHT22;28672;49.358;8.780;2022-11-20T00:08:11;3.70;99.90
43047;DHT22;28672;49.358;8.780;2022-11-20T00:10:38;3.70;99.90
43047;DHT22;28672;49.358;8.780;2022-11-20T00:13:04;3.70;99.90
43047;DHT22;28672;49.358;8.780;2022-11-20T00:15:30;3.60;99.90
43047;DHT22;28672;49.358;8.780;2022-11-20T00:17:56;3.60;99.90
43047;DHT22;28672;49.358;8.780;2022-11-20T00:20:21;3.60;99.90
43047;DHT22;28672;49.358;8.780;2022-11-20T00:25:23;3.70;99.90
43047;DHT22;28672;49.358;8.780;2022-11-20T00:27:49;3.60;99.90
43047;DHT22;28672;49.358;8.780;2022-11-20T00:30:15;3.60;99.90
43047;DHT22;28672;49.358;8.780;2022-11-20T00:32:41;3.60;99.90
43047;DHT22;28672;49.358;8.780;2022-11-20T00:35:09;3.60;99.90
43047;DHT22;28672;49.358;8.780;2022-11-20T00:37:38;3.60;99.90
43047;DHT22;28672;49.358;8.780;2022-11-20T00:40:04;3.70;99.90
43047;DHT22;28672;49.358;8.780;2022-11-20T00:42:30;3.60;99.90
43047;DHT22;28672;49.358;8.780;2022-11-20T00:44:58;3.70;99.90
43047;DHT22;28672;49.358;8.780;2022-11-20T00:47:23;3.70;99.90
43047;DHT22;28672;49.358;8.780;2022-11-20T00:49:49;3.60;99.90
43047;DHT22;28672;49.358;8.780;2022-11-20T00:52:15;3.60;99.90
43047;DHT22;28672;49.358;8.780;2022-11-20T00:54:40;3.70;99.90
43047;DHT22;28672;49.358;8.780;2022-11-20T00:57:06;3.70;99.90
43047;DHT22;28672;49.358;8.780;2022-11-20T00:59:32;3.70;99.90
43047;DHT22;28672;49.358;8.780;2022-11-20T01:01:58;3.70;99.90
43047;DHT22;28672;49.358;8.780;2022-11-20T01:04:23;3.70;99.90
43047;DHT22;28672;49.358;8.780;2022-11-20T01:06:49;3.70;99.90
43047;DHT22;28672;49.358;8.780;2022-11-20T01:09:15;3.70;99.90
43047;DHT22;28672;49.358;8.780;2022-11-20T01:11:43;3.70;99.90
43047;DHT22;28672;49.358;8.780;2022-11-20T01:14:15;3.70;99.90
43047;DHT22;28672;49.358;8.780;2022-11-20T01:16:43;3.70;99.90
43047;DHT22;28672;49.358;8.780;2022-11-20T01:19:16;3.70;99.90
43047;DHT22;28672;49.358;8.780;2022-11-20T01:21:44;3.70;99.90
43047;DHT22;28672;49.358;8.780;2022-11-20T01:24:15;3.80;99.90
43047;DHT22;28672;49.358;8.780;2022-11-20T01:26:42;3.70;99.90
43047;DHT22;28672;49.358;8.780;2022-11-20T01:29:17;3.70;99.90
43047;DHT22;28672;49.358;8.780;2022-11-20T01:31:43;3.70;99.90
43047;DHT22;28672;49.358;8.780;2022-11-20T01:34:12;3.70;99.90
43047;DHT22;28672;49.358;8.780;2022-11-20T01:36:39;3.80;99.90
43047;DHT22;28672;49.358;8.780;2022-11-20T01:39:07;3.80;99.90
43047;DHT22;28672;49.358;8.780;2022-11-20T01:41:35;3.80;99.90
43047;DHT22;28672;49.358;8.780;2022-11-20T01:44:22;3.80;99.90
43047;DHT22;28672;49.358;8.780;2022-11-20T01:47:00;3.80;99.90
43047;DHT22;28672;49.358;8.780;2022-11-20T01:49:39;3.80;99.90
43047;DHT22;28672;49.358;8.780;2022-11-20T01:52:15;3.80;99.90
43047;DHT22;28672;49.358;8.780;2022-11-20T01:55:10;3.80;99.90
43047;DHT22;28672;49.358;8.780;2022-11-20T01:57:38;3.80;99.90
43047;DHT22;28672;49.358;8.780;2022-11-20T02:00:17;3.80;99.90
43047;DHT22;28672;49.358;8.780;2022-11-20T02:02:56;3.80;99.90
43047;DHT22;28672;49.358;8.780;2022-11-20T02:05:31;3.80;99.90
43047;DHT22;28672;49.358;8.780;2022-11-20T02:07:59;3.80;99.90
43047;DHT22;28672;49.358;8.780;2022-11-20T02:10:26;3.90;99.90
43047;DHT22;28672;49.358;8.780;2022-11-20T02:12:52;3.80;99.90
43047;DHT22;28672;49.358;8.780;2022-11-20T02:15:37;3.80;99.90
43047;DHT22;28672;49.358;8.780;2022-11-20T02:18:03;3.90;99.90
43047;DHT22;28672;49.358;8.780;2022-11-20T02:20:29;3.80;99.90
43047;DHT22;28672;49.358;8.780;2022-11-20T02:22:59;3.80;99.90
43047;DHT22;28672;49.358;8.780;2022-11-20T02:25:27;3.80;99.90
43047;DHT22;28672;49.358;8.780;2022-11-20T02:27:57;3.80;99.90
43047;DHT22;28672;49.358;8.780;2022-11-20T02:30:23;3.70;99.90
43047;DHT22;28672;49.358;8.780;2022-11-20T02:32:49;3.80;99.90
43047;DHT22;28672;49.358;8.780;2022-11-20T02:37:43;3.80;99.90
43047;DHT22;28672;49.358;8.780;2022-11-20T02:40:10;3.80;99.90
43047;DHT22;28672;49.358;8.780;2022-11-20T02:42:36;3.80;99.90
43047;DHT22;28672;49.358;8.780;2022-11-20T02:45:03;3.90;99.90
43047;DHT22;28672;49.358;8.780;2022-11-20T02:47:29;3.90;99.90
43047;DHT22;28672;49.358;8.780;2022-11-20T02:49:55;3.90;99.90
43047;DHT22;28672;49.358;8.780;2022-11-20T02:52:21;3.90;99.90
43047;DHT22;28672;49.358;8.780;2022-11-20T02:54:46;3.90;99.90
43047;DHT22;28672;49.358;8.780;2022-11-20T02:57:12;3.90;99.90
43047;DHT22;28672;49.358;8.780;2022-11-20T02:59:37;3.90;99.90
43047;DHT22;28672;49.358;8.780;2022-11-20T03:02:03;3.90;99.90
43047;DHT22;28672;49.358;8.780;2022-11-20T03:04:28;3.90;99.90
43047;DHT22;28672;49.358;8.780;2022-11-20T03:06:54;4.00;99.90
43047;DHT22;28672;49.358;8.780;2022-11-20T03:09:20;4.00;99.90
43047;DHT22;28672;49.358;8.780;2022-11-20T03:11:45;3.90;99.90
43047;DHT22;28672;49.358;8.780;2022-11-20T03:14:11;3.90;99.90
43047;DHT22;28672;49.358;8.780;2022-11-20T03:16:36;3.90;99.90
43047;DHT22;28672;49.358;8.780;2022-11-20T03:19:02;3.90;99.90
43047;DHT22;28672;49.358;8.780;2022-11-20T03:21:28;3.90;99.90
43047;DHT22;28672;49.358;8.780;2022-11-20T03:23:54;3.90;99.90
43047;DHT22;28672;49.358;8.780;2022-11-20T03:26:22;3.90;99.90
43047;DHT22;28672;49.358;8.780;2022-11-20T03:28:49;3.80;99.90
43047;DHT22;28672;49.358;8.780;2022-11-20T03:31:17;3.90;99.90
43047;DHT22;28672;49.358;8.780;2022-11-20T03:33:43;3.90;99.90
43047;DHT22;28672;49.358;8.780;2022-11-20T03:36:11;3.90;99.90
43047;DHT22;28672;49.358;8.780;2022-11-20T03:38:38;3.90;99.90
43047;DHT22;28672;49.358;8.780;2022-11-20T03:41:09;3.90;99.90
43047;DHT22;28672;49.358;8.780;2022-11-20T03:43:35;3.90;99.90
43047;DHT22;28672;49.358;8.780;2022-11-20T03:46:01;3.90;99.90
43047;DHT22;28672;49.358;8.780;2022-11-20T03:48:27;3.90;99.90
43047;DHT22;28672;49.358;8.780;2022-11-20T03:51:06;3.90;99.90
43047;DHT22;28672;49.358;8.780;2022-11-20T03:53:31;3.90;99.90
43047;DHT22;28672;49.358;8.780;2022-11-20T03:55:57;3.90;99.90
43047;DHT22;28672;49.358;8.780;2022-11-20T03:58:22;4.00;99.90
43047;DHT22;28672;49.358;8.780;2022-11-20T04:00:48;3.90;99.90
43047;DHT22;28672;49.358;8.780;2022-11-20T04:03:13;3.90;99.90
43047;DHT22;28672;49.358;8.780;2022-11-20T04:05:39;3.90;99.90
43047;DHT22;28672;49.358;8.780;2022-11-20T04:08:05;3.90;99.90
43047;DHT22;28672;49.358;8.780;2022-11-20T04:10:30;4.00;99.90
43047;DHT22;28672;49.358;8.780;2022-11-20T04:12:56;3.90;99.90
43047;DHT22;28672;49.358;8.780;2022-11-20T04:15:21;4.00;99.90
43047;DHT22;28672;49.358;8.780;2022-11-20T04:17:47;4.00;99.90
43047;DHT22;28672;49.358;8.780;2022-11-20T04:20:13;3.90;99.90
43047;DHT22;28672;49.358;8.780;2022-11-20T04:22:38;3.90;99.90
43047;DHT22;28672;49.358;8.780;2022-11-20T04:25:04;3.90;99.90
43047;DHT22;28672;49.358;8.780;2022-11-20T04:27:30;4.00;99.90
43047;DHT22;28672;49.358;8.780;2022-11-20T04:29:56;4.10;99.90
43047;DHT22;28672;49.358;8.780;2022-11-20T04:32:22;4.00;99.90
43047;DHT22;28672;49.358;8.780;2022-11-20T04:34:47;4.10;99.90
43047;DHT22;28672;49.358;8.780;2022-11-20T04:37:13;4.10;99.90
43047;DHT22;28672;49.358;8.780;2022-11-20T04:39:38;4.10;99.90
43047;DHT22;28672;49.358;8.780;2022-11-20T04:42:04;4.10;99.90
43047;DHT22;28672;49.358;8.780;2022-11-20T04:44:48;4.10;99.90
43047;DHT22;28672;49.358;8.780;2022-11-20T04:47:13;4.10;99.90
43047;DHT22;28672;49.358;8.780;2022-11-20T04:49:39;4.10;99.90
43047;DHT22;28672;49.358;8.780;2022-11-20T04:52:05;4.10;99.90
43047;DHT22;28672;49.358;8.780;2022-11-20T04:54:30;4.00;99.90
43047;DHT22;28672;49.358;8.780;2022-11-20T04:56:56;4.10;99.90
43047;DHT22;28672;49.358;8.780;2022-11-20T04:59:22;4.10;99.90
43047;DHT22;28672;49.358;8.780;2022-11-20T05:01:48;4.10;99.90
43047;DHT22;28672;49.358;8.780;2022-11-20T05:04:13;4.10;99.90
43047;DHT22;28672;49.358;8.780;2022-11-20T05:06:39;4.10;99.90
43047;DHT22;28672;49.358;8.780;2022-11-20T05:09:04;4.10;99.90
43047;DHT22;28672;49.358;8.780;2022-11-20T05:11:31;4.20;99.90
43047;DHT22;28672;49.358;8.780;2022-11-20T05:13:58;4.10;99.90
43047;DHT22;28672;49.358;8.780;2022-11-20T05:16:25;4.10;99.90
43047;DHT22;28672;49.358;8.780;2022-11-20T05:18:51;4.10;99.90
43047;DHT22;28672;49.358;8.780;2022-11-20T05:21:17;4.10;99.90
43047;DHT22;28672;49.358;8.780;2022-11-20T05:23:44;4.20;99.90
43047;DHT22;28672;49.358;8.780;2022-11-20T05:26:21;4.20;99.90
43047;DHT22;28672;49.358;8.780;2022-11-20T05:28:47;4.20;99.90
43047;DHT22;28672;49.358;8.780;2022-11-20T05:31:21;4.30;99.90
43047;DHT22;28672;49.358;8.780;2022-11-20T05:33:47;4.20;99.90
43047;DHT22;28672;49.358;8.780;2022-11-20T05:36:14;4.30;99.90
43047;DHT22;28672;49.358;8.780;2022-11-20T05:38:41;4.30;99.90
43047;DHT22;28672;49.358;8.780;2022-11-20T05:41:12;4.30;99.90
43047;DHT22;28672;49.358;8.780;2022-11-20T05:43:39;4.30;99.90
43047;DHT22;28672;49.358;8.780;2022-11-20T05:46:07;4.30;99.90
43047;DHT22;28672;49.358;8.780;2022-11-20T05:48:34;4.30;99.90
43047;DHT22;28672;49.358;8.780;2022-11-20T05:51:01;4.30;99.90
43047;DHT22;28672;49.358;8.780;2022-11-20T05:53:27;4.30;99.90
43047;DHT22;28672;49.358;8.780;2022-11-20T05:55:58;4.20;99.90
43047;DHT22;28672;49.358;8.780;2022-11-20T05:58:24;4.20;99.90
43047;DHT22;28672;49.358;8.780;2022-11-20T06:00:50;4.30;99.90
43047;DHT22;28672;49.358;8.780;2022-11-20T06:03:15;4.30;99.90
43047;DHT22;28672;49.358;8.780;2022-11-20T06:05:41;4.40;99.90
43047;DHT22;28672;49.358;8.780;2022-11-20T06:08:06;4.40;99.90
43047;DHT22;28672;49.358;8.780;2022-11-20T06:10:32;4.50;99.90
43047;DHT22;28672;49.358;8.780;2022-11-20T06:12:58;4.50;99.90
43047;DHT22;28672;49.358;8.780;2022-11-20T06:15:24;4.50;99.90
43047;DHT22;28672;49.358;8.780;2022-11-20T06:17:52;4.50;99.90
43047;DHT22;28672;49.358;8.780;2022-11-20T06:20:18;4.60;99.90
43047;DHT22;28672;49.358;8.780;2022-11-20T06:22:44;4.70;99.90
43047;DHT22;28672;49.358;8.780;2022-11-20T06:25:09;4.90;99.90
43047;DHT22;28672;49.358;8.780;2022-11-20T06:27:35;5.20;99.90
43047;DHT22;28672;49.358;8.780;2022-11-20T06:30:01;5.50;99.90
43047;DHT22;28672;49.358;8.780;2022-11-20T06:32:26;5.60;99.90
43047;DHT22;28672;49.358;8.780;2022-11-20T06:34:52;5.70;99.90
43047;DHT22;28672;49.358;8.780;2022-11-20T06:37:17;5.80;99.90
43047;DHT22;28672;49.358;8.780;2022-11-20T06:39:43;5.90;99.90
43047;DHT22;28672;49.358;8.780;2022-11-20T06:42:09;5.90;99.90
43047;DHT22;28672;49.358;8.780;2022-11-20T06:44:34;6.10;99.90
43047;DHT22;28672;49.358;8.780;2022-11-20T06:47:00;6.10;99.90
43047;DHT22;28672;49.358;8.780;2022-11-20T06:49:26;6.10;99.90
43047;DHT22;28672;49.358;8.780;2022-11-20T06:51:51;6.10;99.90
43047;DHT22;28672;49.358;8.780;2022-11-20T06:54:17;6.10;99.90
43047;DHT22;28672;49.358;8.780;2022-11-20T06:56:46;6.20;99.90
43047;DHT22;28672;49.358;8.780;2022-11-20T06:59:13;6.20;99.90
43047;DHT22;28672;49.358;8.780;2022-11-20T07:01:38;6.30;99.90
43047;DHT22;28672;49.358;8.780;2022-11-20T07:04:04;6.30;99.90
43047;DHT22;28672;49.358;8.780;2022-11-20T07:06:30;6.40;99.90
43047;DHT22;28672;49.358;8.780;2022-11-20T07:08:56;6.50;99.90
43047;DHT22;28672;49.358;8.780;2022-11-20T07:11:21;6.50;99.90
43047;DHT22;28672;49.358;8.780;2022-11-20T07:13:47;6.60;99.90
43047;DHT22;28672;49.358;8.780;2022-11-20T07:16:12;6.70;99.90
43047;DHT22;28672;49.358;8.780;2022-11-20T07:18:38;6.80;99.90
43047;DHT22;28672;49.358;8.780;2022-11-20T07:21:06;6.90;99.90
43047;DHT22;28672;49.358;8.780;2022-11-20T07:23:32;6.90;99.90
43047;DHT22;28672;49.358;8.780;2022-11-20T07:25:58;6.90;99.90
43047;DHT22;28672;49.358;8.780;2022-11-20T07:28:27;6.90;99.90
43047;DHT22;28672;49.358;8.780;2022-11-20T07:30:53;6.90;99.90
43047;DHT22;28672;49.358;8.780;2022-11-20T07:33:19;6.90;99.90
43047;DHT22;28672;49.358;8.780;2022-11-20T07:35:45;6.90;99.90
43047;DHT22;28672;49.358;8.780;2022-11-20T07:38:11;6.80;99.90
43047;DHT22;28672;49.358;8.780;2022-11-20T07:40:36;6.80;99.90
43047;DHT22;28672;49.358;8.780;2022-11-20T07:43:03;6.90;99.90
43047;DHT22;28672;49.358;8.780;2022-11-20T07:45:29;6.90;99.90
43047;DHT22;28672;49.358;8.780;2022-11-20T07:47:54;7.00;99.90
43047;DHT22;28672;49.358;8.780;2022-11-20T07:50:20;7.00;99.90
43047;DHT22;28672;49.358;8.780;2022-11-20T07:52:45;6.90;99.90
43047;DHT22;28672;49.358;8.780;2022-11-20T07:55:11;7.00;99.90
43047;DHT22;28672;49.358;8.780;2022-11-20T07:57:37;6.90;99.90
43047;DHT22;28672;49.358;8.780;2022-11-20T08:00:03;6.90;99.90
43047;DHT22;28672;49.358;8.780;2022-11-20T08:02:30;7.00;99.90
43047;DHT22;28672;49.358;8.780;2022-11-20T08:04:56;7.00;99.90
43047;DHT22;28672;49.358;8.780;2022-11-20T08:07:21;7.10;99.90
43047;DHT22;28672;49.358;8.780;2022-11-20T08:09:47;7.20;99.90
43047;DHT22;28672;49.358;8.780;2022-11-20T08:12:18;7.20;99.90
43047;DHT22;28672;49.358;8.780;2022-11-20T08:15:04;7.20;99.90
43047;DHT22;28672;49.358;8.780;2022-11-20T08:17:29;7.20;99.90
43047;DHT22;28672;49.358;8.780;2022-11-20T08:19:55;7.20;99.90
43047;DHT22;28672;49.358;8.780;2022-11-20T08:22:21;7.20;99.90
43047;DHT22;28672;49.358;8.780;2022-11-20T08:24:46;7.30;99.90
43047;DHT22;28672;49.358;8.780;2022-11-20T08:27:13;7.30;99.90
43047;DHT22;28672;49.358;8.780;2022-11-20T08:29:38;7.40;99.90
43047;DHT22;28672;49.358;8.780;2022-11-20T08:32:04;7.50;99.90
43047;DHT22;28672;49.358;8.780;2022-11-20T08:34:30;7.50;99.90
43047;DHT22;28672;49.358;8.780;2022-11-20T08:36:55;7.50;99.90
43047;DHT22;28672;49.358;8.780;2022-11-20T08:39:21;7.50;99.90
43047;DHT22;28672;49.358;8.780;2022-11-20T08:41:46;7.50;99.90
43047;DHT22;28672;49.358;8.780;2022-11-20T08:44:12;7.50;99.90
43047;DHT22;28672;49.358;8.780;2022-11-20T08:46:39;7.50;99.90
43047;DHT22;28672;49.358;8.780;2022-11-20T08:49:08;7.60;99.90
43047;DHT22;28672;49.358;8.780;2022-11-20T08:51:34;7.60;99.90
43047;DHT22;28672;49.358;8.780;2022-11-20T08:54:00;7.60;99.90
43047;DHT22;28672;49.358;8.780;2022-11-20T08:56:26;7.70;99.90
43047;DHT22;28672;49.358;8.780;2022-11-20T08:58:52;7.80;99.90
43047;DHT22;28672;49.358;8.780;2022-11-20T09:01:21;7.80;99.90
43047;DHT22;28672;49.358;8.780;2022-11-20T09:03:47;7.80;99.90
43047;DHT22;28672;49.358;8.780;2022-11-20T09:06:13;7.70;99.90
43047;DHT22;28672;49.358;8.780;2022-11-20T09:08:39;7.80;99.90
43047;DHT22;28672;49.358;8.780;2022-11-20T09:11:05;7.70;99.90
43047;DHT22;28672;49.358;8.780;2022-11-20T09:13:32;7.70;99.90
43047;DHT22;28672;49.358;8.780;2022-11-20T09:16:07;7.70;99.90
43047;DHT22;28672;49.358;8.780;2022-11-20T09:18:34;7.70;99.90
43047;DHT22;28672;49.358;8.780;2022-11-20T09:21:05;7.70;99.90
43047;DHT22;28672;49.358;8.780;2022-11-20T09:23:32;7.70;99.90
43047;DHT22;28672;49.358;8.780;2022-11-20T09:26:02;7.70;99.90
43047;DHT22;28672;49.358;8.780;2022-11-20T09:28:28;7.60;99.90
43047;DHT22;28672;49.358;8.780;2022-11-20T09:30:53;7.70;99.90
43047;DHT22;28672;49.358;8.780;2022-11-20T09:33:19;7.70;99.90
43047;DHT22;28672;49.358;8.780;2022-11-20T09:35:44;7.70;99.90
43047;DHT22;28672;49.358;8.780;2022-11-20T09:38:10;7.70;99.90
43047;DHT22;28672;49.358;8.780;2022-11-20T09:40:39;7.70;99.90
43047;DHT22;28672;49.358;8.780;2022-11-20T09:43:19;7.80;99.90
43047;DHT22;28672;49.358;8.780;2022-11-20T09:48:29;7.90;99.90
43047;DHT22;28672;49.358;8.780;2022-11-20T09:56:29;8.00;99.90
43047;DHT22;28672;49.358;8.780;2022-11-20T09:58:59;8.00;99.90
43047;DHT22;28672;49.358;8.780;2022-11-20T10:01:29;8.00;99.90
43047;DHT22;28672;49.358;8.780;2022-11-20T10:04:15;8.00;99.90
43047;DHT22;28672;49.358;8.780;2022-11-20T10:06:56;8.10;99.90
43047;DHT22;28672;49.358;8.780;2022-11-20T10:09:31;8.10;99.90
43047;DHT22;28672;49.358;8.780;2022-11-20T10:25:37;8.20;99.90
43047;DHT22;28672;49.358;8.780;2022-11-20T10:28:20;8.20;99.90
43047;DHT22;28672;49.358;8.780;2022-11-20T10:31:08;8.20;99.90
43047;DHT22;28672;49.358;8.780;2022-11-20T10:33:40;8.10;99.90
43047;DHT22;28672;49.358;8.780;2022-11-20T10:36:25;8.30;99.90
43047;DHT22;28672;49.358;8.780;2022-11-20T10:39:20;8.20;99.90
43047;DHT22;28672;49.358;8.780;2022-11-20T10:41:51;8.30;99.90
43047;DHT22;28672;49.358;8.780;2022-11-20T10:44:19;8.20;99.90
43047;DHT22;28672;49.358;8.780;2022-11-20T10:47:05;8.30;99.90
43047;DHT22;28672;49.358;8.780;2022-11-20T10:49:32;8.30;99.90
43047;DHT22;28672;49.358;8.780;2022-11-20T10:54:44;8.40;99.90
43047;DHT22;28672;49.358;8.780;2022-11-20T11:00:01;8.40;99.90
43047;DHT22;28672;49.358;8.780;2022-11-20T11:02:47;8.50;99.90
43047;DHT22;28672;49.358;8.780;2022-11-20T11:05:30;8.50;99.90
43047;DHT22;28672;49.358;8.780;2022-11-20T11:07:58;8.60;99.90
43047;DHT22;28672;49.358;8.780;2022-11-20T11:10:42;8.70;99.90
43047;DHT22;28672;49.358;8.780;2022-11-20T11:13:29;8.70;99.90
43047;DHT22;28672;49.358;8.780;2022-11-20T11:15:55;8.80;99.90
43047;DHT22;28672;49.358;8.780;2022-11-20T11:18:29;8.70;99.90
43047;DHT22;28672;49.358;8.780;2022-11-20T11:20:56;8.70;99.90
43047;DHT22;28672;49.358;8.780;2022-11-20T11:23:40;8.70;99.90
43047;DHT22;28672;49.358;8.780;2022-11-20T11:26:18;8.70;99.90
43047;DHT22;28672;49.358;8.780;2022-11-20T11:28:57;8.70;99.90
43047;DHT22;28672;49.358;8.780;2022-11-20T11:31:27;8.90;99.90
43047;DHT22;28672;49.358;8.780;2022-11-20T11:34:17;9.20;99.90
43047;DHT22;28672;49.358;8.780;2022-11-20T11:36:52;9.40;99.90
43047;DHT22;28672;49.358;8.780;2022-11-20T11:39:20;9.90;99.90
43047;DHT22;28672;49.358;8.780;2022-11-20T11:41:47;10.00;99.90
43047;DHT22;28672;49.358;8.780;2022-11-20T11:44:20;9.90;99.90
43047;DHT22;28672;49.358;8.780;2022-11-20T11:47:10;9.80;99.90
43047;DHT22;28672;49.358;8.780;2022-11-20T11:49:36;9.80;99.90
43047;DHT22;28672;49.358;8.780;2022-11-20T11:57:09;9.50;99.90
43047;DHT22;28672;49.358;8.780;2022-11-20T12:10:21;9.40;99.90
43047;DHT22;28672;49.358;8.780;2022-11-20T12:12:54;9.50;99.90
43047;DHT22;28672;49.358;8.780;2022-11-20T12:15:29;9.50;99.90
43047;DHT22;28672;49.358;8.780;2022-11-20T12:17:55;9.40;99.90
43047;DHT22;28672;49.358;8.780;2022-11-20T12:20:24;9.50;99.90
43047;DHT22;28672;49.358;8.780;2022-11-20T12:23:13;9.50;99.90
43047;DHT22;28672;49.358;8.780;2022-11-20T12:25:42;9.50;99.90
43047;DHT22;28672;49.358;8.780;2022-11-20T12:28:13;9.70;99.90
43047;DHT22;28672;49.358;8.780;2022-11-20T12:30:59;9.70;99.90
43047;DHT22;28672;49.358;8.780;2022-11-20T12:39:18;9.90;99.90
43047;DHT22;28672;49.358;8.780;2022-11-20T12:50:57;9.80;99.90
43047;DHT22;28672;49.358;8.780;2022-11-20T12:56:42;9.70;99.90
43047;DHT22;28672;49.358;8.780;2022-11-20T13:02:24;9.70;99.90
43047;DHT22;28672;49.358;8.780;2022-11-20T13:07:38;9.60;99.90
43047;DHT22;28672;49.358;8.780;2022-11-20T13:10:06;9.70;99.90
43047;DHT22;28672;49.358;8.780;2022-11-20T13:12:57;9.70;99.90
43047;DHT22;28672;49.358;8.780;2022-11-20T13:18:04;9.80;99.90
43047;DHT22;28672;49.358;8.780;2022-11-20T13:20:33;9.80;99.90
43047;DHT22;28672;49.358;8.780;2022-11-20T13:22:59;9.70;99.90
43047;DHT22;28672;49.358;8.780;2022-11-20T13:27:56;9.70;99.90
43047;DHT22;28672;49.358;8.780;2022-11-20T13:30:27;9.80;99.90
43047;DHT22;28672;49.358;8.780;2022-11-20T13:35:35;9.80;99.90
43047;DHT22;28672;49.358;8.780;2022-11-20T13:40:33;9.80;99.90
43047;DHT22;28672;49.358;8.780;2022-11-20T13:45:32;9.90;99.90
43047;DHT22;28672;49.358;8.780;2022-11-20T13:48:16;10.10;99.90
43047;DHT22;28672;49.358;8.780;2022-11-20T13:56:34;10.20;99.90
43047;DHT22;28672;49.358;8.780;2022-11-20T13:59:04;10.10;99.90
43047;DHT22;28672;49.358;8.780;2022-11-20T14:01:32;10.00;99.90
43047;DHT22;28672;49.358;8.780;2022-11-20T14:04:00;9.90;99.90
43047;DHT22;28672;49.358;8.780;2022-11-20T14:06:27;9.90;99.90
43047;DHT22;28672;49.358;8.780;2022-11-20T14:08:54;10.00;99.90
43047;DHT22;28672;49.358;8.780;2022-11-20T14:11:25;9.90;99.90
43047;DHT22;28672;49.358;8.780;2022-11-20T14:14:02;9.90;99.90
43047;DHT22;28672;49.358;8.780;2022-11-20T14:16:35;9.80;99.90
43047;DHT22;28672;49.358;8.780;2022-11-20T14:21:46;10.00;99.90
43047;DHT22;28672;49.358;8.780;2022-11-20T14:24:13;10.00;99.90
43047;DHT22;28672;49.358;8.780;2022-11-20T14:26:44;9.90;99.90
43047;DHT22;28672;49.358;8.780;2022-11-20T14:29:19;9.90;99.90
43047;DHT22;28672;49.358;8.780;2022-11-20T14:31:48;9.90;99.90
43047;DHT22;28672;49.358;8.780;2022-11-20T14:34:20;9.80;99.90
43047;DHT22;28672;49.358;8.780;2022-11-20T14:36:46;9.60;99.90
43047;DHT22;28672;49.358;8.780;2022-11-20T14:39:20;9.50;99.90
43047;DHT22;28672;49.358;8.780;2022-11-20T14:41:53;9.40;99.90
43047;DHT22;28672;49.358;8.780;2022-11-20T14:44:27;9.30;99.90
43047;DHT22;28672;49.358;8.780;2022-11-20T14:46:54;9.20;99.90
43047;DHT22;28672;49.358;8.780;2022-11-20T14:49:20;9.20;99.90
43047;DHT22;28672;49.358;8.780;2022-11-20T14:51:46;9.00;99.90
43047;DHT22;28672;49.358;8.780;2022-11-20T14:56:38;8.80;99.90
43047;DHT22;28672;49.358;8.780;2022-11-20T14:59:04;8.70;99.90
43047;DHT22;28672;49.358;8.780;2022-11-20T15:01:31;8.60;99.90
43047;DHT22;28672;49.358;8.780;2022-11-20T15:04:15;8.50;99.90
43047;DHT22;28672;49.358;8.780;2022-11-20T15:06:50;8.40;99.90
43047;DHT22;28672;49.358;8.780;2022-11-20T15:09:16;8.40;99.90
43047;DHT22;28672;49.358;8.780;2022-11-20T15:11:53;8.40;99.90
43047;DHT22;28672;49.358;8.780;2022-11-20T15:14:19;8.30;99.90
43047;DHT22;28672;49.358;8.780;2022-11-20T15:16:45;8.30;99.90
43047;DHT22;28672;49.358;8.780;2022-11-20T15:19:22;8.20;99.90
43047;DHT22;28672;49.358;8.780;2022-11-20T15:21:48;8.20;99.90
43047;DHT22;28672;49.358;8.780;2022-11-20T15:24:14;8.10;99.90
43047;DHT22;28672;49.358;8.780;2022-11-20T15:26:40;8.10;99.90
43047;DHT22;28672;49.358;8.780;2022-11-20T15:29:14;8.10;99.90
43047;DHT22;28672;49.358;8.780;2022-11-20T15:31:44;8.00;99.90
43047;DHT22;28672;49.358;8.780;2022-11-20T15:34:16;7.90;99.90
43047;DHT22;28672;49.358;8.780;2022-11-20T15:36:42;7.90;99.90
43047;DHT22;28672;49.358;8.780;2022-11-20T15:39:09;7.80;99.90
43047;DHT22;28672;49.358;8.780;2022-11-20T15:41:37;7.80;99.90
43047;DHT22;28672;49.358;8.780;2022-11-20T15:44:06;7.70;99.90
43047;DHT22;28672;49.358;8.780;2022-11-20T15:46:33;7.60;99.90
43047;DHT22;28672;49.358;8.780;2022-11-20T15:49:04;7.60;99.90
43047;DHT22;28672;49.358;8.780;2022-11-20T15:51:36;7.60;99.90
43047;DHT22;28672;49.358;8.780;2022-11-20T15:54:11;7.50;99.90
43047;DHT22;28672;49.358;8.780;2022-11-20T15:56:37;7.50;99.90
43047;DHT22;28672;49.358;8.780;2022-11-20T15:59:03;7.50;99.90
43047;DHT22;28672;49.358;8.780;2022-11-20T16:01:29;7.40;99.90
43047;DHT22;28672;49.358;8.780;2022-11-20T16:03:54;7.40;99.90
43047;DHT22;28672;49.358;8.780;2022-11-20T16:06:20;7.40;99.90
43047;DHT22;28672;49.358;8.780;2022-11-20T16:08:45;7.40;99.90
43047;DHT22;28672;49.358;8.780;2022-11-20T16:11:13;7.40;99.90
43047;DHT22;28672;49.358;8.780;2022-11-20T16:13:39;7.40;99.90
43047;DHT22;28672;49.358;8.780;2022-11-20T16:16:33;7.30;99.90
43047;DHT22;28672;49.358;8.780;2022-11-20T16:18:59;7.30;99.90
43047;DHT22;28672;49.358;8.780;2022-11-20T16:21:25;7.20;99.90
43047;DHT22;28672;49.358;8.780;2022-11-20T16:24:02;7.20;99.90
43047;DHT22;28672;49.358;8.780;2022-11-20T16:26:28;7.10;99.90
43047;DHT22;28672;49.358;8.780;2022-11-20T16:28:55;7.10;99.90
43047;DHT22;28672;49.358;8.780;2022-11-20T16:31:21;7.10;99.90
43047;DHT22;28672;49.358;8.780;2022-11-20T16:33:55;7.00;99.90
43047;DHT22;28672;49.358;8.780;2022-11-20T16:36:22;7.00;99.90
43047;DHT22;28672;49.358;8.780;2022-11-20T16:38:55;6.90;99.90
43047;DHT22;28672;49.358;8.780;2022-11-20T16:41:22;6.90;99.90
43047;DHT22;28672;49.358;8.780;2022-11-20T16:43:49;6.80;99.90
43047;DHT22;28672;49.358;8.780;2022-11-20T16:46:17;6.80;99.90
43047;DHT22;28672;49.358;8.780;2022-11-20T16:48:43;6.80;99.90
43047;DHT22;28672;49.358;8.780;2022-11-20T16:51:11;6.80;99.90
43047;DHT22;28672;49.358;8.780;2022-11-20T16:53:37;6.70;99.90
43047;DHT22;28672;49.358;8.780;2022-11-20T16:56:12;6.70;99.90
43047;DHT22;28672;49.358;8.780;2022-11-20T16:58:38;6.60;99.90
43047;DHT22;28672;49.358;8.780;2022-11-20T17:01:08;6.60;99.90
43047;DHT22;28672;49.358;8.780;2022-11-20T17:03:43;6.60;99.90
43047;DHT22;28672;49.358;8.780;2022-11-20T17:06:16;6.60;99.90
43047;DHT22;28672;49.358;8.780;2022-11-20T17:08:43;6.60;99.90
43047;DHT22;28672;49.358;8.780;2022-11-20T17:11:11;6.50;99.90
43047;DHT22;28672;49.358;8.780;2022-11-20T17:13:36;6.50;99.90
43047;DHT22;28672;49.358;8.780;2022-11-20T17:16:07;6.50;99.90
43047;DHT22;28672;49.358;8.780;2022-11-20T17:18:33;6.60;99.90
43047;DHT22;28672;49.358;8.780;2022-11-20T17:21:00;6.60;99.90
43047;DHT22;28672;49.358;8.780;2022-11-20T17:23:41;6.60;99.90
43047;DHT22;28672;49.358;8.780;2022-11-20T17:26:09;6.70;99.90
43047;DHT22;28672;49.358;8.780;2022-11-20T17:28:36;6.80;99.90
43047;DHT22;28672;49.358;8.780;2022-11-20T17:31:08;6.90;99.90